Time;durP1;ratioP1;P1;durP2;ratioP2;P2;SDS_P1;SDS_P2;PMS_P1;PMS_P2;Temp;Humidity;BMP_temperature;BMP_pressure;BME280_temperature;BME280_humidity;BME280_pressure;Samples;Min_cycle;Max_cycle;Signal;HPM_P1;HPM_P2
2021/10/12 00:01:44;;;;;;;0.00;0.00;;;11.60;66.80;;;;;;5057426;28;20131;-79
2021/10/12 00:04:10;;;;;;;0.00;0.00;;;11.60;66.90;;;;;;5057650;28;20021;-78
2021/10/12 00:06:36;;;;;;;0.00;0.00;;;11.60;67.00;;;;;;5075291;28;20200;-77
2021/10/12 00:09:02;;;;;;;0.00;0.00;;;11.60;67.20;;;;;;5075239;28;20103;-77
2021/10/12 00:11:28;;;;;;;0.00;0.00;;;11.60;67.30;;;;;;5074162;28;20082;-78
2021/10/12 00:13:54;;;;;;;0.00;0.00;;;11.60;67.40;;;;;;5057349;28;20020;-79
2021/10/12 00:16:20;;;;;;;0.00;0.00;;;11.60;67.60;;;;;;5075303;28;20025;-79
2021/10/12 00:18:46;;;;;;;0.00;0.00;;;11.60;67.80;;;;;;5057331;28;20094;-79
2021/10/12 00:21:12;;;;;;;0.00;0.00;;;11.50;67.90;;;;;;5075191;28;20032;-79
2021/10/12 00:23:38;;;;;;;0.00;0.00;;;11.50;68.00;;;;;;5057215;28;20375;-82
2021/10/12 00:26:04;;;;;;;0.00;0.00;;;11.50;68.30;;;;;;5075134;28;20032;-78
2021/10/12 00:28:30;;;;;;;0.00;0.00;;;11.50;68.30;;;;;;5075037;28;20380;-78
2021/10/12 00:30:57;;;;;;;0.00;0.00;;;11.40;68.50;;;;;;5074981;28;20036;-78
2021/10/12 00:33:23;;;;;;;0.00;0.00;;;11.40;68.60;;;;;;5057002;28;20055;-77
2021/10/12 00:35:49;;;;;;;0.00;0.00;;;11.40;68.70;;;;;;5074661;28;20096;-77
2021/10/12 00:38:15;;;;;;;0.00;0.00;;;11.40;68.80;;;;;;5056996;28;20032;-77
2021/10/12 00:40:41;;;;;;;0.00;0.00;;;11.40;68.90;;;;;;5074727;28;20027;-78
2021/10/12 00:43:08;;;;;;;0.00;0.00;;;11.40;69.00;;;;;;5074620;28;20409;-78
2021/10/12 00:45:35;;;;;;;0.00;0.00;;;11.40;69.10;;;;;;5074836;28;20456;-78
2021/10/12 00:48:07;;;;;;;0.10;0.00;;;11.40;69.00;;;;;;5074560;28;20027;-77
2021/10/12 00:50:34;;;;;;;0.00;0.00;;;11.40;69.10;;;;;;5056704;28;20035;-78
2021/10/12 00:53:01;;;;;;;0.00;0.00;;;11.40;69.10;;;;;;5074563;28;20111;-78
2021/10/12 00:55:26;;;;;;;0.00;0.00;;;11.40;69.10;;;;;;5074563;28;20020;-78
2021/10/12 00:57:53;;;;;;;0.00;0.00;;;11.40;69.20;;;;;;5074233;28;20032;-77
2021/10/12 01:00:19;;;;;;;0.00;0.00;;;11.40;69.30;;;;;;5074644;28;20369;-77
2021/10/12 01:02:45;;;;;;;0.00;0.00;;;11.30;69.30;;;;;;5073537;28;20041;-78
2021/10/12 01:05:11;;;;;;;0.00;0.00;;;11.30;69.40;;;;;;5074380;28;20090;-78
2021/10/12 01:07:37;;;;;;;0.00;0.00;;;11.40;69.50;;;;;;5073913;28;20025;-81
2021/10/12 01:10:06;;;;;;;0.00;0.00;;;11.40;69.60;;;;;;5056180;28;20037;-79
2021/10/12 01:12:32;;;;;;;0.00;0.00;;;11.30;69.70;;;;;;5074126;28;20447;-78
2021/10/12 01:14:58;;;;;;;0.00;0.00;;;11.30;69.70;;;;;;5074112;28;20021;-78
2021/10/12 01:17:24;;;;;;;0.05;0.00;;;11.30;69.80;;;;;;5074053;28;20074;-78
2021/10/12 01:19:50;;;;;;;0.00;0.00;;;11.30;69.80;;;;;;5073932;28;20104;-77
2021/10/12 01:22:15;;;;;;;0.00;0.00;;;11.30;69.80;;;;;;5055992;28;20123;-77
2021/10/12 01:24:41;;;;;;;0.00;0.00;;;11.30;70.50;;;;;;5073665;28;20029;-78
2021/10/12 01:27:07;;;;;;;0.00;0.00;;;11.30;69.90;;;;;;5073909;28;20031;-77
2021/10/12 01:29:33;;;;;;;0.00;0.00;;;11.30;69.90;;;;;;5074040;28;20029;-78
2021/10/12 01:31:59;;;;;;;0.00;0.00;;;11.30;69.90;;;;;;5073798;28;20028;-78
2021/10/12 01:34:25;;;;;;;0.00;0.00;;;11.30;70.00;;;;;;5073990;28;20044;-78
2021/10/12 01:36:51;;;;;;;0.00;0.00;;;11.20;69.90;;;;;;5073523;28;20077;-78
2021/10/12 01:39:18;;;;;;;0.00;0.00;;;11.20;69.90;;;;;;5072678;28;20047;-78
2021/10/12 01:41:44;;;;;;;0.00;0.00;;;11.20;70.00;;;;;;5073590;28;20033;-78
2021/10/12 01:44:15;;;;;;;0.00;0.00;;;11.30;70.20;;;;;;5073881;28;20036;-79
2021/10/12 01:46:41;;;;;;;0.03;0.00;;;11.30;70.30;;;;;;5073395;28;20447;-79
2021/10/12 01:49:08;;;;;;;0.00;0.00;;;11.30;70.30;;;;;;5073599;28;20021;-77
2021/10/12 01:51:34;;;;;;;0.00;0.00;;;11.40;71.00;;;;;;5055703;28;20028;-78
2021/10/12 01:54:02;;;;;;;0.00;0.00;;;11.40;70.30;;;;;;5073272;28;20540;-78
2021/10/12 01:56:29;;;;;;;0.00;0.00;;;11.40;70.20;;;;;;5073652;28;20468;-77
2021/10/12 01:58:55;;;;;;;0.00;0.00;;;11.50;70.20;;;;;;5073618;28;20415;-77
2021/10/12 02:01:23;;;;;;;0.00;0.00;;;11.50;70.10;;;;;;5073272;28;20036;-77
2021/10/12 02:03:49;;;;;;;0.00;0.00;;;11.60;70.10;;;;;;5073450;28;20027;-78
2021/10/12 02:06:15;;;;;;;0.00;0.00;;;11.50;69.90;;;;;;5073762;28;20028;-78
2021/10/12 02:08:41;;;;;;;0.00;0.00;;;11.50;69.90;;;;;;5073289;28;20029;-78
2021/10/12 02:11:07;;;;;;;0.00;0.00;;;11.60;70.00;;;;;;5073099;28;20039;-78
2021/10/12 02:13:33;;;;;;;0.00;0.00;;;11.50;69.90;;;;;;5073402;28;20021;-77
2021/10/12 02:15:59;;;;;;;0.00;0.00;;;11.50;69.90;;;;;;5074963;28;20078;-78
2021/10/12 02:18:24;;;;;;;0.73;0.00;;;11.50;70.00;;;;;;5077190;28;20024;-79
2021/10/12 02:20:50;;;;;;;0.10;0.00;;;11.50;70.10;;;;;;5077511;28;20035;-79
2021/10/12 02:23:16;;;;;;;0.00;0.00;;;11.50;70.10;;;;;;5077275;28;20100;-78
2021/10/12 02:25:42;;;;;;;0.00;0.00;;;11.50;70.20;;;;;;5077553;28;20586;-80
2021/10/12 02:28:08;;;;;;;0.00;0.00;;;11.50;70.30;;;;;;5076315;28;20034;-78
2021/10/12 02:30:34;;;;;;;0.00;0.00;;;11.50;70.30;;;;;;5077070;28;20020;-78
2021/10/12 02:33:00;;;;;;;0.00;0.00;;;11.50;70.30;;;;;;5076959;28;20041;-77
2021/10/12 02:35:25;;;;;;;0.00;0.00;;;11.50;70.40;;;;;;5059211;28;20063;-79
2021/10/12 02:37:51;;;;;;;0.00;0.00;;;11.50;70.40;;;;;;5077467;28;20449;-79
2021/10/12 02:40:17;;;;;;;0.00;0.00;;;11.50;70.50;;;;;;5059274;28;20102;-78
2021/10/12 02:42:43;;;;;;;0.00;0.00;;;11.40;70.40;;;;;;5077004;28;20037;-79
2021/10/12 02:45:09;;;;;;;0.00;0.00;;;11.40;70.50;;;;;;5077013;28;20043;-79
2021/10/12 02:47:35;;;;;;;0.00;0.00;;;11.40;70.50;;;;;;5076699;28;20020;-79
2021/10/12 02:50:03;;;;;;;0.00;0.00;;;11.40;70.60;;;;;;5076589;28;20028;-77
2021/10/12 02:52:28;;;;;;;0.20;0.03;;;11.40;70.70;;;;;;5076729;28;20090;-78
2021/10/12 02:54:55;;;;;;;0.00;0.00;;;11.40;70.80;;;;;;5047614;28;20025;-78
2021/10/12 02:57:21;;;;;;;0.00;0.00;;;11.40;70.90;;;;;;5038936;28;20021;-78
2021/10/12 02:59:47;;;;;;;0.00;0.00;;;11.30;70.90;;;;;;5056798;28;20636;-78
2021/10/12 03:02:13;;;;;;;0.00;0.00;;;11.30;70.90;;;;;;5056522;28;20108;-78
2021/10/12 03:04:38;;;;;;;0.00;0.00;;;11.30;71.00;;;;;;5056628;28;20469;-78
2021/10/12 03:07:04;;;;;;;0.00;0.00;;;11.30;71.00;;;;;;5038792;28;20033;-78
2021/10/12 03:09:30;;;;;;;0.05;0.03;;;11.20;71.10;;;;;;5038866;28;20497;-78
2021/10/12 03:11:55;;;;;;;0.00;0.00;;;11.20;71.30;;;;;;5056296;28;20086;-79
2021/10/12 03:14:21;;;;;;;0.00;0.00;;;11.10;71.30;;;;;;5056540;28;20021;-78
2021/10/12 03:16:47;;;;;;;0.00;0.00;;;11.10;71.40;;;;;;5056609;28;20113;-79
2021/10/12 03:19:14;;;;;;;0.00;0.00;;;11.00;71.50;;;;;;5056243;28;20479;-78
2021/10/12 03:21:49;;;;;;;0.00;0.00;;;11.00;71.70;;;;;;5038814;28;20417;-79
2021/10/12 03:24:14;;;;;;;0.00;0.00;;;11.00;71.80;;;;;;5056418;28;20021;-78
2021/10/12 03:26:40;;;;;;;0.00;0.00;;;11.00;71.80;;;;;;5055786;28;20495;-78
2021/10/12 03:29:06;;;;;;;0.00;0.00;;;10.90;71.80;;;;;;5063662;28;20060;-78
2021/10/12 03:31:32;;;;;;;0.00;0.00;;;10.90;71.80;;;;;;5058292;28;20032;-78
2021/10/12 03:33:57;;;;;;;0.00;0.00;;;11.00;71.90;;;;;;5075691;28;20049;-79
2021/10/12 03:36:23;;;;;;;0.00;0.00;;;10.90;71.80;;;;;;5058188;28;20481;-79
2021/10/12 03:38:49;;;;;;;0.00;0.00;;;11.00;71.80;;;;;;5075778;28;20021;-80
2021/10/12 03:41:14;;;;;;;0.00;0.00;;;11.00;71.80;;;;;;5075978;28;20072;-79
2021/10/12 03:43:40;;;;;;;0.00;0.00;;;11.00;71.60;;;;;;5075706;28;20028;-79
2021/10/12 03:46:06;;;;;;;0.00;0.00;;;11.00;71.50;;;;;;5075524;28;20051;-80
2021/10/12 03:48:31;;;;;;;0.03;0.03;;;11.00;71.40;;;;;;5076254;28;20024;-78
2021/10/12 03:50:57;;;;;;;0.00;0.00;;;11.10;71.40;;;;;;5063786;28;20033;-77
2021/10/12 03:53:23;;;;;;;0.20;0.10;;;11.10;71.30;;;;;;5043078;28;20126;-79
2021/10/12 03:55:48;;;;;;;0.00;0.00;;;11.10;71.10;;;;;;5075508;28;20033;-81
2021/10/12 03:58:14;;;;;;;0.00;0.00;;;11.00;70.90;;;;;;5075623;28;20036;-80
2021/10/12 04:00:40;;;;;;;0.10;0.10;;;11.00;70.90;;;;;;5075825;28;20029;-78
2021/10/12 04:03:06;;;;;;;0.03;0.03;;;10.90;70.70;;;;;;5057587;28;20372;-80
2021/10/12 04:05:31;;;;;;;0.00;0.00;;;10.90;70.80;;;;;;5057633;28;20107;-80
2021/10/12 04:07:57;;;;;;;0.00;0.00;;;10.90;70.80;;;;;;5075691;28;20036;-79
2021/10/12 04:10:23;;;;;;;0.20;0.00;;;10.90;70.80;;;;;;5075175;28;20464;-78
2021/10/12 04:12:48;;;;;;;0.00;0.00;;;10.80;70.80;;;;;;5075431;28;20032;-79
2021/10/12 04:15:14;;;;;;;0.00;0.00;;;10.80;70.70;;;;;;5074950;28;20100;-79
2021/10/12 04:17:40;;;;;;;0.00;0.00;;;10.80;70.70;;;;;;5075640;28;20044;-79
2021/10/12 04:20:06;;;;;;;0.17;0.00;;;10.80;70.70;;;;;;5075301;28;20032;-79
2021/10/12 04:22:32;;;;;;;0.00;0.00;;;10.80;70.70;;;;;;5075305;28;20043;-78
2021/10/12 04:24:57;;;;;;;0.00;0.00;;;10.70;70.60;;;;;;5057139;28;20029;-79
2021/10/12 04:27:23;;;;;;;0.00;0.00;;;10.80;70.60;;;;;;5074788;28;20027;-78
2021/10/12 04:29:49;;;;;;;0.00;0.00;;;10.80;70.50;;;;;;5074988;28;20035;-78
2021/10/12 04:32:15;;;;;;;0.00;0.00;;;10.70;70.40;;;;;;5074687;28;20043;-78
2021/10/12 04:34:41;;;;;;;0.00;0.00;;;10.70;70.40;;;;;;5057222;28;20049;-78
2021/10/12 04:37:06;;;;;;;0.00;0.00;;;10.70;70.30;;;;;;5074796;28;20021;-78
2021/10/12 04:39:32;;;;;;;0.00;0.00;;;10.80;70.40;;;;;;5074782;28;20124;-78
2021/10/12 04:41:58;;;;;;;0.10;0.00;;;10.80;70.30;;;;;;5052679;28;20033;-79
2021/10/12 04:44:28;;;;;;;0.00;0.00;;;10.80;70.20;;;;;;5037038;28;20036;-79
2021/10/12 04:46:54;;;;;;;0.00;0.00;;;10.80;70.20;;;;;;5054809;28;20025;-80
2021/10/12 04:49:20;;;;;;;0.00;0.00;;;10.80;70.10;;;;;;5053390;28;20075;-80
2021/10/12 04:51:46;;;;;;;0.00;0.00;;;10.80;70.10;;;;;;5054469;28;20036;-79
2021/10/12 04:54:12;;;;;;;0.00;0.00;;;10.80;70.00;;;;;;5054365;28;20113;-79
2021/10/12 04:56:38;;;;;;;0.10;0.00;;;10.90;70.00;;;;;;5036833;28;20158;-78
2021/10/12 04:59:05;;;;;;;0.00;0.00;;;10.90;70.00;;;;;;5047409;28;20108;-79
2021/10/12 05:01:31;;;;;;;0.00;0.00;;;11.00;69.90;;;;;;5039303;28;20036;-79
2021/10/12 05:03:56;;;;;;;0.00;0.00;;;11.20;69.80;;;;;;5048210;28;20028;-79
2021/10/12 05:06:22;;;;;;;0.00;0.00;;;11.30;69.60;;;;;;5044414;28;20017;-80
2021/10/12 05:08:48;;;;;;;0.00;0.00;;;11.40;69.30;;;;;;5044314;28;20021;-79
2021/10/12 05:11:14;;;;;;;0.00;0.00;;;11.50;69.00;;;;;;5042397;28;20048;-79
2021/10/12 05:13:40;;;;;;;0.32;0.00;;;11.70;68.80;;;;;;5038720;28;20049;-77
2021/10/12 05:16:11;;;;;;;0.03;0.03;;;11.80;68.60;;;;;;5067698;28;20025;-78
2021/10/12 05:18:39;;;;;;;0.00;0.00;;;11.90;68.40;;;;;;5073965;28;20032;-79
2021/10/12 05:21:05;;;;;;;0.00;0.00;;;12.10;68.20;;;;;;5055983;28;20032;-78
2021/10/12 05:23:31;;;;;;;0.28;0.00;;;12.10;67.90;;;;;;5074028;28;20031;-78
2021/10/12 05:25:58;;;;;;;0.08;0.08;;;12.20;67.60;;;;;;5055917;28;20025;-80
2021/10/12 05:28:25;;;;;;;0.00;0.00;;;12.30;67.30;;;;;;5073929;28;20048;-79
2021/10/12 05:30:51;;;;;;;0.10;0.03;;;12.40;67.00;;;;;;5074339;28;20033;-79
2021/10/12 05:33:19;;;;;;;0.00;0.00;;;12.50;66.70;;;;;;5073718;28;20445;-79
2021/10/12 05:35:47;;;;;;;0.00;0.00;;;12.60;66.40;;;;;;5074314;28;20358;-79
2021/10/12 05:38:14;;;;;;;0.00;0.00;;;12.60;66.20;;;;;;5055681;28;20115;-79
2021/10/12 05:40:41;;;;;;;0.00;0.00;;;12.70;66.10;;;;;;5073408;28;20021;-76
2021/10/12 05:43:06;;;;;;;0.00;0.00;;;12.80;65.80;;;;;;5073293;28;20023;-78
2021/10/12 05:45:34;;;;;;;0.00;0.00;;;12.80;65.70;;;;;;5073819;28;20032;-79
2021/10/12 05:48:00;;;;;;;0.00;0.00;;;12.90;66.10;;;;;;5073608;28;20464;-79
2021/10/12 05:50:26;;;;;;;0.03;0.00;;;13.00;65.20;;;;;;5073528;28;20021;-78
2021/10/12 05:58:13;;;;;;;0.15;0.15;;;13.30;64.50;;;;;;5073635;28;20033;-78
2021/10/12 06:00:39;;;;;;;0.05;0.05;;;13.40;64.30;;;;;;5073080;28;20479;-79
2021/10/12 06:03:05;;;;;;;0.00;0.00;;;13.50;64.00;;;;;;5055528;28;20029;-78
2021/10/12 06:05:31;;;;;;;0.00;0.00;;;13.60;63.70;;;;;;5073499;28;20055;-79
2021/10/12 06:07:56;;;;;;;0.00;0.00;;;13.70;63.50;;;;;;5073539;28;20465;-78
2021/10/12 06:10:22;;;;;;;0.10;0.00;;;13.80;63.30;;;;;;5073131;28;20028;-78
2021/10/12 06:12:50;;;;;;;0.10;0.00;;;13.90;63.10;;;;;;5073426;28;20036;-79
2021/10/12 06:15:15;;;;;;;0.00;0.00;;;14.10;62.90;;;;;;5055654;28;20396;-79
2021/10/12 06:17:41;;;;;;;0.00;0.00;;;14.20;62.60;;;;;;5073430;28;20021;-79
2021/10/12 06:20:07;;;;;;;0.00;0.00;;;14.30;62.30;;;;;;5073330;28;20025;-78
2021/10/12 06:22:33;;;;;;;0.00;0.00;;;14.50;61.90;;;;;;5072984;28;20036;-79
2021/10/12 06:24:58;;;;;;;0.03;0.03;;;14.60;61.50;;;;;;5055167;28;20465;-80
2021/10/12 06:27:24;;;;;;;0.00;0.00;;;14.80;61.20;;;;;;5055098;28;20021;-79
2021/10/12 06:29:50;;;;;;;0.00;0.00;;;14.90;60.80;;;;;;5072946;28;20020;-78
2021/10/12 06:32:16;;;;;;;0.00;0.00;;;15.00;60.30;;;;;;5072963;28;20040;-78
2021/10/12 06:34:42;;;;;;;0.20;0.00;;;15.20;60.00;;;;;;5072737;28;20048;-77
2021/10/12 06:37:07;;;;;;;0.00;0.00;;;15.30;59.40;;;;;;5073360;28;20036;-79
2021/10/12 06:39:35;;;;;;;0.32;0.00;;;15.30;59.00;;;;;;5073018;28;20028;-79
2021/10/12 06:42:01;;;;;;;0.00;0.00;;;15.40;58.70;;;;;;5073098;28;20036;-79
2021/10/12 06:44:27;;;;;;;0.00;0.00;;;15.50;58.50;;;;;;5070293;28;20024;-79
2021/10/12 06:46:52;;;;;;;0.00;0.00;;;15.50;58.20;;;;;;5053729;28;20044;-78
2021/10/12 06:49:18;;;;;;;0.10;0.10;;;15.50;58.10;;;;;;5052552;28;20036;-78
2021/10/12 06:51:44;;;;;;;0.00;0.00;;;15.50;58.00;;;;;;5052961;28;20029;-78
2021/10/12 06:54:10;;;;;;;0.00;0.00;;;15.50;58.00;;;;;;5052835;28;20035;-78
2021/10/12 06:56:36;;;;;;;0.00;0.00;;;15.60;58.10;;;;;;5053280;28;20103;-78
2021/10/12 06:59:01;;;;;;;0.00;0.00;;;15.60;58.00;;;;;;5052777;28;20079;-78
2021/10/12 07:01:27;;;;;;;0.00;0.00;;;15.80;57.80;;;;;;5036764;28;20414;-78
2021/10/12 07:03:53;;;;;;;0.00;0.00;;;16.00;57.50;;;;;;5038963;28;20382;-79
2021/10/12 07:06:19;;;;;;;0.85;0.20;;;16.20;57.30;;;;;;5039219;28;20029;-79
2021/10/12 07:08:46;;;;;;;0.00;0.00;;;16.40;57.00;;;;;;5057119;28;20021;-78
2021/10/12 07:11:12;;;;;;;0.00;0.00;;;16.60;56.60;;;;;;5057046;28;20068;-79
2021/10/12 07:13:38;;;;;;;0.00;0.00;;;16.90;56.00;;;;;;5050164;28;20059;-80
2021/10/12 07:16:04;;;;;;;0.00;0.00;;;17.10;55.40;;;;;;5046445;28;20041;-80
2021/10/12 07:18:30;;;;;;;0.00;0.00;;;17.30;54.90;;;;;;5046153;28;20025;-80
2021/10/12 07:20:56;;;;;;;0.00;0.00;;;17.60;54.30;;;;;;5044541;28;20377;-80
2021/10/12 07:23:22;;;;;;;0.00;0.00;;;17.80;53.20;;;;;;5045616;28;20025;-79
2021/10/12 07:25:50;;;;;;;0.00;0.00;;;18.00;52.40;;;;;;5045180;28;20399;-80
2021/10/12 07:28:16;;;;;;;0.25;0.25;;;18.10;52.10;;;;;;5044217;28;20032;-80
2021/10/12 07:30:42;;;;;;;0.10;0.10;;;18.10;51.80;;;;;;5048338;28;20025;-79
2021/10/12 07:33:08;;;;;;;0.00;0.00;;;18.00;51.40;;;;;;5056310;28;20122;-79
2021/10/12 07:35:34;;;;;;;0.00;0.00;;;17.80;51.50;;;;;;5055999;28;20104;-81
2021/10/12 07:38:01;;;;;;;0.00;0.00;;;17.80;51.90;;;;;;5056679;28;20388;-80
2021/10/12 07:40:27;;;;;;;0.10;0.10;;;17.80;52.30;;;;;;5056282;28;20033;-79
2021/10/12 07:42:53;;;;;;;0.00;0.00;;;17.80;52.50;;;;;;5055990;28;20029;-79
2021/10/12 07:45:18;;;;;;;0.15;0.08;;;17.80;52.60;;;;;;5056423;28;20457;-80
2021/10/12 07:47:44;;;;;;;0.00;0.00;;;17.80;52.70;;;;;;5056271;28;20029;-79
2021/10/12 07:50:10;;;;;;;0.00;0.00;;;17.70;52.70;;;;;;5037668;28;20434;-79
2021/10/12 07:52:37;;;;;;;0.00;0.00;;;17.60;53.00;;;;;;5038177;28;20037;-80
2021/10/12 07:57:35;;;;;;;0.00;0.00;;;17.40;53.40;;;;;;5055721;28;20104;-78
2021/10/12 08:00:03;;;;;;;0.10;0.10;;;17.30;53.60;;;;;;5055627;28;20063;-79
2021/10/12 08:02:28;;;;;;;0.00;0.00;;;17.20;53.90;;;;;;5055720;28;20065;-79
2021/10/12 08:04:55;;;;;;;0.00;0.00;;;17.10;54.00;;;;;;5055711;28;20063;-80
2021/10/12 08:07:22;;;;;;;0.00;0.00;;;17.10;54.10;;;;;;5055486;28;20029;-80
2021/10/12 08:09:52;;;;;;;0.00;0.00;;;17.10;54.20;;;;;;5055331;28;20029;-80
2021/10/12 08:12:18;;;;;;;0.10;0.10;;;17.10;54.20;;;;;;5054692;28;20025;-80
2021/10/12 08:14:47;;;;;;;0.00;0.00;;;17.20;54.20;;;;;;5054777;28;20071;-80
2021/10/12 08:17:13;;;;;;;0.00;0.00;;;17.30;54.10;;;;;;5044059;28;20040;-79
2021/10/12 08:19:39;;;;;;;0.00;0.00;;;17.50;54.00;;;;;;5044766;28;20404;-79
2021/10/12 08:22:05;;;;;;;0.00;0.00;;;17.60;53.70;;;;;;5049182;28;20060;-78
2021/10/12 08:24:31;;;;;;;0.03;0.03;;;17.80;53.40;;;;;;5051337;28;20020;-79
2021/10/12 08:26:57;;;;;;;0.00;0.00;;;17.90;53.20;;;;;;5050360;28;20028;-78
2021/10/12 08:29:22;;;;;;;0.00;0.00;;;18.00;53.00;;;;;;5074969;28;20108;-80
2021/10/12 08:31:49;;;;;;;0.13;0.00;;;18.10;52.70;;;;;;5075032;28;20028;-80
2021/10/12 08:34:16;;;;;;;0.00;0.00;;;18.10;52.70;;;;;;5074837;28;20049;-79
2021/10/12 08:36:42;;;;;;;0.00;0.00;;;18.20;53.00;;;;;;5056740;28;20085;-81
2021/10/12 08:39:08;;;;;;;0.00;0.00;;;18.30;52.50;;;;;;5041369;28;20423;-80
2021/10/12 08:41:47;;;;;;;0.00;0.00;;;18.40;52.00;;;;;;5054941;28;20119;-78
2021/10/12 08:44:13;;;;;;;0.00;0.00;;;18.40;51.50;;;;;;5055258;28;20070;-80
2021/10/12 08:46:40;;;;;;;0.00;0.00;;;18.50;51.40;;;;;;5055222;28;20449;-81
2021/10/12 08:49:08;;;;;;;0.00;0.00;;;18.60;51.30;;;;;;5046798;28;20048;-80
2021/10/12 08:51:33;;;;;;;0.00;0.00;;;18.80;51.00;;;;;;5050679;28;20033;-81
2021/10/12 08:53:59;;;;;;;0.00;0.00;;;19.00;50.80;;;;;;5054330;28;20031;-78
2021/10/12 08:56:25;;;;;;;0.00;0.00;;;19.20;50.40;;;;;;5054545;28;20021;-78
2021/10/12 08:58:50;;;;;;;0.00;0.00;;;19.50;50.00;;;;;;5037294;28;20025;-78
2021/10/12 09:01:19;;;;;;;0.00;0.00;;;19.90;49.60;;;;;;5028178;28;20120;-79
2021/10/12 09:03:51;;;;;;;0.00;0.00;;;20.70;49.00;;;;;;5046671;28;20040;-79
2021/10/12 09:06:30;;;;;;;0.00;0.00;;;21.60;47.20;;;;;;5036540;28;20429;-81
2021/10/12 09:09:14;;;;;;;0.00;0.00;;;22.30;45.30;;;;;;5054672;28;20035;-78
2021/10/12 09:11:41;;;;;;;0.00;0.00;;;22.80;44.10;;;;;;5036069;28;20025;-77
2021/10/12 09:14:11;;;;;;;0.00;0.00;;;23.10;43.70;;;;;;5043776;28;20447;-74
2021/10/12 09:16:43;;;;;;;0.00;0.00;;;23.20;43.20;;;;;;5016740;28;20029;-79
2021/10/12 09:19:14;;;;;;;0.00;0.00;;;23.30;42.90;;;;;;5035583;28;20029;-78
2021/10/12 09:21:42;;;;;;;0.00;0.00;;;23.40;42.80;;;;;;5054286;28;20044;-78
2021/10/12 09:24:20;;;;;;;0.00;0.00;;;23.60;42.50;;;;;;5053371;28;20036;-78
2021/10/12 09:26:54;;;;;;;0.00;0.00;;;24.00;42.00;;;;;;5053949;28;20365;-78
2021/10/12 09:29:30;;;;;;;0.00;0.00;;;24.30;41.10;;;;;;5035843;28;20061;-79
2021/10/12 09:31:58;;;;;;;0.00;0.00;;;24.40;40.90;;;;;;5053411;28;20540;-79
2021/10/12 09:34:24;;;;;;;0.00;0.00;;;24.50;40.80;;;;;;5053210;28;20045;-77
2021/10/12 09:36:51;;;;;;;0.00;0.00;;;24.60;40.70;;;;;;5053536;28;20378;-77
2021/10/12 09:39:38;;;;;;;0.00;0.00;;;24.70;40.50;;;;;;5053708;28;20423;-78
2021/10/12 09:42:08;;;;;;;0.00;0.00;;;24.80;40.00;;;;;;5052916;28;20510;-77
2021/10/12 09:44:35;;;;;;;0.00;0.00;;;24.90;40.10;;;;;;5053740;28;20033;-78
2021/10/12 09:47:15;;;;;;;0.00;0.00;;;25.00;40.10;;;;;;5053706;28;20032;-78
2021/10/12 09:49:45;;;;;;;0.00;0.00;;;25.10;39.80;;;;;;5053584;28;20041;-78
2021/10/12 09:52:13;;;;;;;0.00;0.00;;;25.40;39.70;;;;;;5052833;28;20058;-78
2021/10/12 09:54:56;;;;;;;0.00;0.00;;;25.80;39.50;;;;;;5052963;28;20029;-81
2021/10/12 09:57:23;;;;;;;0.00;0.00;;;26.50;38.80;;;;;;5053318;28;20029;-78
2021/10/12 09:59:50;;;;;;;0.00;0.00;;;27.20;38.50;;;;;;5028424;28;20037;-78
2021/10/12 10:02:17;;;;;;;0.00;0.00;;;27.60;37.80;;;;;;5033090;28;20030;-77
2021/10/12 10:04:43;;;;;;;0.00;0.00;;;27.70;36.90;;;;;;5033744;28;20021;-78
2021/10/12 10:07:20;;;;;;;0.00;0.00;;;27.40;36.10;;;;;;5034005;28;20030;-79
2021/10/12 10:09:48;;;;;;;0.10;0.05;;;26.90;35.60;;;;;;5033054;28;20444;-79
2021/10/12 10:12:15;;;;;;;0.00;0.00;;;26.30;35.90;;;;;;5053284;28;20582;-79
2021/10/12 10:14:41;;;;;;;0.00;0.00;;;25.80;36.20;;;;;;5053301;28;20033;-78
2021/10/12 10:17:07;;;;;;;0.00;0.00;;;25.10;36.60;;;;;;5053285;28;20029;-78
2021/10/12 10:19:36;;;;;;;0.10;0.00;;;24.60;36.90;;;;;;5040720;28;20033;-79
2021/10/12 10:22:05;;;;;;;0.00;0.00;;;24.00;37.00;;;;;;5033677;28;20038;-80
2021/10/12 10:24:37;;;;;;;0.00;0.00;;;23.50;37.50;;;;;;5015482;28;20034;-79
2021/10/12 10:27:03;;;;;;;0.00;0.00;;;23.00;38.10;;;;;;5016008;28;20057;-77
2021/10/12 10:29:37;;;;;;;0.00;0.00;;;22.50;38.70;;;;;;5033111;28;20026;-78
2021/10/12 10:32:12;;;;;;;0.00;0.00;;;22.20;39.00;;;;;;5015113;28;20041;-78
2021/10/12 10:34:37;;;;;;;0.08;0.00;;;21.80;39.60;;;;;;5033658;28;20080;-78
2021/10/12 10:37:15;;;;;;;0.00;0.00;;;21.60;40.20;;;;;;5035409;28;20017;-77
2021/10/12 10:40:08;;;;;;;0.00;0.00;;;21.40;40.40;;;;;;5019180;28;20052;-78
2021/10/12 10:42:33;;;;;;;0.00;0.00;;;21.40;40.50;;;;;;5035528;28;20450;-78
2021/10/12 10:45:00;;;;;;;0.00;0.00;;;21.40;40.70;;;;;;5019506;28;20120;-79
2021/10/12 10:47:44;;;;;;;0.00;0.00;;;21.50;40.60;;;;;;5019069;28;20364;-79
2021/10/12 10:50:25;;;;;;;0.00;0.00;;;21.70;40.40;;;;;;5023162;28;20076;-78
2021/10/12 10:53:00;;;;;;;0.10;0.10;;;22.20;40.20;;;;;;5047718;28;20033;-78
2021/10/12 10:55:32;;;;;;;0.00;0.00;;;23.40;39.30;;;;;;5044724;28;20026;-79
2021/10/12 10:58:01;;;;;;;0.00;0.00;;;24.30;37.70;;;;;;5044059;28;20018;-78
2021/10/12 11:00:46;;;;;;;0.00;0.00;;;24.80;36.90;;;;;;5041831;28;20114;-80
2021/10/12 11:03:31;;;;;;;0.00;0.00;;;25.70;35.90;;;;;;5036556;28;20044;-78
2021/10/12 11:05:57;;;;;;;;;;;26.30;35.00;;;;;;5051776;28;20025;-79
2021/10/12 11:08:27;;;;;;;0.00;0.00;;;26.80;36.00;;;;;;5050684;28;19920;-78
2021/10/12 11:10:57;;;;;;;0.10;0.10;;;27.60;34.60;;;;;;5030382;28;20108;-78
2021/10/12 11:13:34;;;;;;;0.00;0.00;;;28.20;33.20;;;;;;5024015;28;20067;-77
2021/10/12 11:16:01;;;;;;;0.00;0.00;;;28.50;32.50;;;;;;5047042;28;20644;-80
2021/10/12 11:18:27;;;;;;;0.00;0.00;;;28.30;32.20;;;;;;5026597;28;20021;-79
2021/10/12 11:20:56;;;;;;;0.00;0.00;;;27.50;32.80;;;;;;5032127;28;20380;-79
2021/10/12 11:23:33;;;;;;;0.00;0.00;;;26.50;32.40;;;;;;5050293;28;20032;-79
2021/10/12 11:26:08;;;;;;;0.00;0.00;;;25.60;32.70;;;;;;5047467;28;20103;-79
2021/10/12 11:28:37;;;;;;;0.00;0.00;;;24.80;33.30;;;;;;5043639;28;20104;-78
2021/10/12 11:31:08;;;;;;;0.00;0.00;;;24.10;34.10;;;;;;5026772;28;20025;-80
2021/10/12 11:33:37;;;;;;;0.00;0.00;;;23.40;34.70;;;;;;5038375;28;20138;-79
2021/10/12 11:36:05;;;;;;;0.00;0.00;;;23.00;35.30;;;;;;5046213;28;20115;-79
2021/10/12 11:38:41;;;;;;;0.00;0.00;;;22.60;36.00;;;;;;5040019;28;20044;-80
2021/10/12 11:41:19;;;;;;;0.00;0.00;;;22.30;36.60;;;;;;5029588;28;20028;-79
2021/10/12 11:47:07;;;;;;;0.00;0.00;;;21.80;37.90;;;;;;5045560;28;20519;-78
2021/10/12 11:49:34;;;;;;;0.00;0.00;;;21.50;38.10;;;;;;5074573;28;20029;-76
2021/10/12 11:52:08;;;;;;;0.00;0.00;;;21.20;38.20;;;;;;5058034;28;20033;-78
2021/10/12 11:54:35;;;;;;;0.00;0.00;;;21.00;38.40;;;;;;5055399;28;20029;-79
2021/10/12 11:57:02;;;;;;;0.10;0.00;;;20.80;38.50;;;;;;5049716;28;20033;-78
2021/10/12 11:59:38;;;;;;;0.00;0.00;;;20.60;38.70;;;;;;5018531;28;20413;-79
2021/10/12 12:02:07;;;;;;;0.00;0.00;;;20.30;39.00;;;;;;5031500;28;20103;-78
2021/10/12 12:04:35;;;;;;;0.00;0.00;;;19.90;39.40;;;;;;5055529;28;20032;-78
2021/10/12 12:07:04;;;;;;;0.00;0.00;;;19.60;39.70;;;;;;5031139;28;20048;-78
2021/10/12 12:09:36;;;;;;;0.00;0.00;;;19.40;40.10;;;;;;5052698;28;20032;-77
2021/10/12 12:12:05;;;;;;;0.00;0.00;;;19.10;40.20;;;;;;5037900;28;20033;-77
2021/10/12 12:14:31;;;;;;;0.00;0.00;;;18.90;40.50;;;;;;5055299;28;20025;-77
2021/10/12 12:17:09;;;;;;;0.00;0.00;;;18.80;40.80;;;;;;5055398;28;20025;-78
2021/10/12 12:19:49;;;;;;;0.00;0.00;;;18.60;41.10;;;;;;5037610;28;20044;-78
2021/10/12 12:22:19;;;;;;;0.10;0.10;;;18.40;41.40;;;;;;5052573;28;20492;-79
2021/10/12 12:25:01;;;;;;;0.00;0.00;;;18.20;41.70;;;;;;5035250;28;20474;-79
2021/10/12 12:27:34;;;;;;;0.00;0.00;;;18.10;42.50;;;;;;5035306;28;20442;-79
2021/10/12 12:30:06;;;;;;;0.10;0.00;;;17.90;42.90;;;;;;5017691;28;20454;-79
2021/10/12 12:32:32;;;;;;;0.00;0.00;;;17.80;43.10;;;;;;5034537;28;20063;-78
2021/10/12 12:35:07;;;;;;;0.10;0.10;;;17.60;43.40;;;;;;5029743;28;20427;-77
2021/10/12 12:37:33;;;;;;;0.00;0.00;;;17.50;43.80;;;;;;5054783;28;20029;-78
2021/10/12 12:39:59;;;;;;;0.00;0.00;;;17.40;43.80;;;;;;5054608;28;20029;-80
2021/10/12 12:42:37;;;;;;;0.10;0.03;;;17.30;44.30;;;;;;5054227;28;20033;-77
2021/10/12 12:45:37;;;;;;;0.00;0.00;;;17.20;44.40;;;;;;5035420;28;20446;-78
2021/10/12 12:48:03;;;;;;;0.00;0.00;;;17.10;44.50;;;;;;5050304;28;20083;-78
2021/10/12 12:50:38;;;;;;;0.00;0.00;;;17.10;44.90;;;;;;5035790;28;20370;-79
2021/10/12 12:53:06;;;;;;;0.00;0.00;;;17.00;45.90;;;;;;5018094;28;20071;-78
2021/10/12 12:55:37;;;;;;;0.00;0.00;;;17.00;45.30;;;;;;5044659;28;20081;-79
2021/10/12 12:58:04;;;;;;;0.00;0.00;;;17.00;45.50;;;;;;5054997;28;20032;-78
2021/10/12 13:00:29;;;;;;;0.00;0.00;;;16.90;45.30;;;;;;5036850;28;20112;-79
2021/10/12 13:02:56;;;;;;;0.20;0.00;;;16.90;45.30;;;;;;5030796;28;20100;-78